YXC weather

Cranbrook/Canadian Rockies International Airport
Cranbrook, British Columbia, Canada

Public forecast

Using degrees Celsius for public forecast. Weather courtesy of forecast.io.

METAR (pilot weather report)

Retrieved 2019/05/27 01:00 UTC (27 minutes ago):

CYXC 270100Z 19005KT 180V240 25SM FEW065 BKN120 BKN270 16/02 A3001 RMK CU1AC6CI1 CU TR SLP166 DENSITY ALT 3900FT

TAF (pilot weather forecast)

Retrieved 2019/05/27 01:39 UTC (0 seconds ago):

TAF CYXC 270038Z 2701/2713 VRB03KT P6SM FEW060 SCT090 BKN150 TEMPO 2701/2713 SCT060 BKN090 RMK NXT FCST BY 270700Z